Time;durP1;ratioP1;P1;durP2;ratioP2;P2;SDS_P1;SDS_P2;PMS_P1;PMS_P2;Temp;Humidity;BMP_temperature;BMP_pressure;BME280_temperature;BME280_humidity;BME280_pressure;Samples;Min_cycle;Max_cycle;Signal;HPM_P1;HPM_P2
2022/07/21 00:02:29;;;;;;;13.68;6.35;;;;;;;24.54;49.44;101750.97;5160638;28;20487;-55
2022/07/21 00:05:01;;;;;;;16.23;6.78;;;;;;;24.56;49.42;101740.78;5157934;28;20427;-57
2022/07/21 00:07:34;;;;;;;13.32;6.57;;;;;;;24.64;49.52;101745.06;5156699;28;20479;-48
2022/07/21 00:10:08;;;;;;;15.57;7.40;;;;;;;24.64;49.48;101738.84;5160061;28;20451;-57
2022/07/21 00:12:40;;;;;;;19.08;7.13;;;;;;;24.64;49.46;101738.84;5160494;28;20776;-57
2022/07/21 00:15:16;;;;;;;12.52;6.95;;;;;;;24.61;49.46;101732.00;5155859;28;20495;-56
2022/07/21 00:17:48;;;;;;;15.60;7.30;;;;;;;24.60;49.50;101730.38;5159750;28;20797;-55
2022/07/21 00:20:22;;;;;;;15.80;7.30;;;;;;;24.60;49.59;101724.97;5156313;28;20524;-55
2022/07/21 00:22:54;;;;;;;20.23;7.82;;;;;;;24.35;49.67;101696.06;5159333;28;20533;-56
2022/07/21 00:25:27;;;;;;;14.43;6.70;;;;;;;24.52;49.73;101725.25;5161611;28;20504;-58
2022/07/21 00:27:59;;;;;;;12.63;6.95;;;;;;;24.56;49.82;101734.56;5156811;28;20503;-53
2022/07/21 00:30:34;;;;;;;14.45;7.50;;;;;;;24.56;49.71;101734.56;5155529;28;20424;-55
2022/07/21 00:33:06;;;;;;;17.50;8.73;;;;;;;24.54;49.79;101729.38;5155904;28;20565;-57
2022/07/21 00:35:39;;;;;;;14.50;7.97;;;;;;;24.52;49.83;101722.53;5158233;28;20516;-56
2022/07/21 00:38:11;;;;;;;18.73;8.37;;;;;;;24.59;49.67;101729.56;5157486;28;20797;-55
2022/07/21 00:40:44;;;;;;;19.85;8.18;;;;;;;24.57;49.74;101725.41;5157924;28;20507;-57
2022/07/21 00:43:16;;;;;;;16.55;7.75;;;;;;;24.56;49.72;101726.47;5155924;28;20436;-55
2022/07/21 00:45:53;;;;;;;19.13;8.25;;;;;;;24.49;49.81;101718.41;5157766;28;20427;-55
2022/07/21 00:48:25;;;;;;;17.38;7.70;;;;;;;24.55;50.27;101731.03;5160903;28;20424;-56
2022/07/21 00:50:57;;;;;;;18.67;7.43;;;;;;;24.55;50.00;101727.50;5157427;28;20495;-57
2022/07/21 00:53:30;;;;;;;18.05;7.55;;;;;;;24.55;50.21;101727.50;5158471;28;20804;-55
2022/07/21 00:56:02;;;;;;;19.80;8.10;;;;;;;24.52;50.12;101733.34;5158678;28;20448;-55
2022/07/21 00:58:35;;;;;;;17.90;8.60;;;;;;;24.45;50.35;101728.00;5156901;28;20479;-56
2022/07/21 01:01:08;;;;;;;20.87;10.50;;;;;;;24.43;50.29;101726.56;5159746;28;20525;-55
2022/07/21 01:03:41;;;;;;;21.58;13.57;;;;;;;24.37;50.67;101730.94;5160117;28;20432;-56
2022/07/21 01:06:13;;;;;;;20.30;14.33;;;;;;;24.21;50.88;101732.31;5160009;28;20535;-55
2022/07/21 01:08:46;;;;;;;22.95;14.85;;;;;;;23.93;50.88;101698.44;5158681;28;20454;-55
2022/07/21 01:11:20;;;;;;;21.23;14.45;;;;;;;24.07;51.29;101722.66;5147629;28;20879;-57
2022/07/21 01:13:52;;;;;;;21.63;14.63;;;;;;;23.97;51.21;101714.19;5159596;28;20900;-54
2022/07/21 01:16:26;;;;;;;24.95;15.93;;;;;;;23.95;51.54;101719.00;5158779;28;20432;-56
2022/07/21 01:18:59;;;;;;;23.38;16.05;;;;;;;23.90;51.69;101728.56;5157844;28;20431;-55
2022/07/21 01:21:36;;;;;;;24.65;15.27;;;;;;;23.84;51.94;101720.50;5161092;28;20999;-57
2022/07/21 01:24:09;;;;;;;22.65;16.42;;;;;;;23.77;51.96;101725.94;5152793;28;20929;-51
2022/07/21 01:26:43;;;;;;;23.05;16.70;;;;;;;23.72;52.14;101722.22;5160864;28;21011;-55
2022/07/21 01:29:16;;;;;;;22.73;16.27;;;;;;;23.55;52.31;101706.53;5161133;28;20557;-56
2022/07/21 01:31:50;;;;;;;22.87;16.80;;;;;;;23.71;52.44;101732.19;5160576;28;20925;-57
2022/07/21 01:34:22;;;;;;;30.75;16.00;;;;;;;23.65;52.31;101716.84;5158884;28;20530;-55
2022/07/21 01:36:56;;;;;;;24.40;16.53;;;;;;;23.71;52.44;101724.09;5162156;28;20401;-55
2022/07/21 01:42:18;;;;;;;26.00;16.05;;;;;;;23.74;52.50;101726.38;5160249;28;20479;-52
2022/07/21 01:44:51;;;;;;;24.67;17.60;;;;;;;23.76;52.72;101713.50;5160971;28;21173;-56
2022/07/21 01:47:23;;;;;;;27.08;17.52;;;;;;;23.74;52.62;101710.19;5164687;28;20431;-58
2022/07/21 01:49:56;;;;;;;26.27;19.33;;;;;;;23.71;52.75;101705.22;5162468;28;20495;-56
2022/07/21 01:52:30;;;;;;;24.38;18.27;;;;;;;23.69;52.89;101696.50;5161316;28;20767;-57
2022/07/21 01:55:02;;;;;;;24.40;18.08;;;;;;;23.74;52.90;101701.28;5161776;28;20451;-55
2022/07/21 01:57:34;;;;;;;28.83;20.45;;;;;;;23.66;53.03;101699.59;5157259;28;20658;-57
2022/07/21 02:00:09;;;;;;;28.05;20.25;;;;;;;23.66;53.22;101703.16;5162105;28;20519;-53
2022/07/21 02:02:41;;;;;;;29.27;21.40;;;;;;;23.65;53.12;101701.47;5160033;28;20514;-58
2022/07/21 02:05:14;;;;;;;31.45;22.50;;;;;;;23.61;53.14;101691.34;5163064;28;20419;-56
2022/07/21 02:07:48;;;;;;;33.80;23.70;;;;;;;23.60;53.48;101687.00;5159535;28;20781;-57
2022/07/21 02:10:20;;;;;;;30.73;23.60;;;;;;;;;;5160353;28;20898;-56
2022/07/21 02:12:52;;;;;;;30.57;23.23;;;;;;;23.51;53.69;101693.69;5157166;28;20425;-53
2022/07/21 02:15:25;;;;;;;33.22;23.98;;;;;;;23.41;53.81;101692.28;5159894;28;20580;-50
2022/07/21 02:17:57;;;;;;;32.45;24.33;;;;;;;23.37;53.92;101691.03;5163482;28;20469;-54
2022/07/21 02:20:30;;;;;;;32.83;24.20;;;;;;;23.25;54.00;101679.28;5162561;28;20759;-57
2022/07/21 02:23:03;;;;;;;29.13;22.23;;;;;;;23.19;54.09;101682.81;5162224;28;20611;-54
2022/07/21 02:25:36;;;;;;;31.50;24.15;;;;;;;23.19;54.26;101690.91;5158682;28;20434;-57
2022/07/21 02:28:08;;;;;;;29.27;23.30;;;;;;;23.17;54.24;101691.13;5160910;28;20562;-54
2022/07/21 02:30:41;;;;;;;30.50;23.52;;;;;;;23.14;54.34;101704.22;5164007;28;20425;-55
2022/07/21 02:33:13;;;;;;;34.13;25.92;;;;;;;22.90;54.61;101676.88;5163774;28;20467;-57
2022/07/21 02:35:46;;;;;;;36.42;25.52;;;;;;;23.01;54.72;101697.81;5163984;28;20498;-57
2022/07/21 02:38:20;;;;;;;30.92;22.73;;;;;;;22.97;54.85;101693.03;5162714;28;20449;-56
2022/07/21 02:40:52;;;;;;;30.27;22.85;;;;;;;22.95;54.98;101679.81;5164191;28;20455;-54
2022/07/21 02:43:25;;;;;;;33.92;24.55;;;;;;;22.76;54.83;101642.91;5163573;28;20370;-53
2022/07/21 02:45:57;;;;;;;31.88;22.75;;;;;;;22.92;54.93;101672.13;5162863;28;20551;-55
2022/07/21 02:48:30;;;;;;;36.72;25.00;;;;;;;22.99;54.89;101681.03;5163596;28;20407;-51
2022/07/21 02:51:02;;;;;;;33.20;25.00;;;;;;;22.92;54.96;101666.72;5164285;28;20845;-55
2022/07/21 02:53:36;;;;;;;35.00;23.47;;;;;;;22.90;55.01;101667.97;5153616;28;20504;-57
2022/07/21 02:56:09;;;;;;;38.33;24.35;;;;;;;22.90;55.14;101673.34;5163333;28;21004;-54
2022/07/21 02:58:41;;;;;;;35.67;25.67;;;;;;;22.85;55.23;101668.59;5164441;28;20635;-51
2022/07/21 03:01:14;;;;;;;32.10;24.67;;;;;;;22.23;55.28;101567.66;5164903;28;20452;-55
2022/07/21 03:03:46;;;;;;;34.20;25.05;;;;;;;22.78;55.33;101651.63;5164722;28;20832;-55
2022/07/21 03:06:18;;;;;;;35.72;24.20;;;;;;;22.83;55.43;101653.69;5164304;28;20443;-56
2022/07/21 03:08:52;;;;;;;34.67;25.27;;;;;;;22.86;55.58;101662.19;5164061;28;20486;-55
2022/07/21 03:11:25;;;;;;;36.30;26.05;;;;;;;22.88;55.53;101662.78;5165346;28;20412;-55
2022/07/21 03:13:58;;;;;;;35.47;26.13;;;;;;;22.84;55.57;101655.34;5161862;28;20448;-55
2022/07/21 03:16:30;;;;;;;36.67;25.73;;;;;;;22.74;55.59;101647.72;5159433;28;20422;-53
2022/07/21 03:19:02;;;;;;;35.80;26.37;;;;;;;22.88;55.72;101676.25;5162787;28;20878;-51
2022/07/21 03:21:35;;;;;;;39.05;27.33;;;;;;;22.82;55.87;101682.47;5158931;28;20413;-55
2022/07/21 03:24:09;;;;;;;37.22;26.25;;;;;;;22.83;55.93;101669.88;5159767;28;20429;-52
2022/07/21 03:26:41;;;;;;;37.78;28.48;;;;;;;22.87;55.98;101671.91;5161438;28;20433;-52
2022/07/21 03:29:13;;;;;;;39.35;28.40;;;;;;;22.83;56.02;101665.31;5159810;28;20422;-54
2022/07/21 03:31:46;;;;;;;36.23;27.70;;;;;;;22.79;56.35;101667.59;5160894;28;20486;-56
2022/07/21 03:34:18;;;;;;;39.05;27.90;;;;;;;22.79;56.25;101672.97;5161893;28;20436;-53
2022/07/21 03:36:51;;;;;;;38.50;28.15;;;;;;;22.74;56.46;101663.88;5161893;28;20446;-55
2022/07/21 03:39:24;;;;;;;37.17;26.65;;;;;;;22.72;56.38;101674.00;5159029;28;20425;-54
2022/07/21 03:41:57;;;;;;;38.78;26.83;;;;;;;22.72;56.60;101671.31;5157840;28;20954;-51
2022/07/21 03:44:29;;;;;;;39.40;27.95;;;;;;;22.73;56.75;101670.28;5154541;28;20494;-52
2022/07/21 03:47:02;;;;;;;37.70;27.30;;;;;;;22.71;56.86;101669.69;5157115;28;20421;-54
2022/07/21 03:49:35;;;;;;;41.15;28.63;;;;;;;22.69;56.72;101674.44;5154336;28;20514;-54
2022/07/21 03:52:07;;;;;;;44.45;30.27;;;;;;;22.68;56.89;101672.78;5158333;28;20437;-54
2022/07/21 03:54:41;;;;;;;40.60;28.85;;;;;;;22.71;57.05;101677.75;5150477;28;20433;-51
2022/07/21 03:57:13;;;;;;;45.08;30.30;;;;;;;22.65;57.06;101657.06;5156496;28;20430;-52
2022/07/21 03:59:45;;;;;;;41.92;29.20;;;;;;;22.72;57.05;101660.56;5159142;28;20427;-51
2022/07/21 04:02:18;;;;;;;39.83;28.05;;;;;;;22.77;57.01;101666.13;5158949;28;20420;-52
2022/07/21 04:04:50;;;;;;;43.13;31.27;;;;;;;22.74;57.04;101658.47;5156218;28;20452;-53
2022/07/21 04:07:22;;;;;;;46.97;29.85;;;;;;;22.81;57.07;101672.75;5160995;28;20444;-52
2022/07/21 04:09:56;;;;;;;43.25;30.38;;;;;;;22.77;57.23;101664.28;5155893;28;21805;-51
2022/07/21 04:12:29;;;;;;;39.60;29.55;;;;;;;22.67;57.43;101655.81;5159509;28;20438;-53
2022/07/21 04:15:02;;;;;;;40.95;29.25;;;;;;;22.68;57.58;101667.41;5157701;28;20445;-51
2022/07/21 04:17:35;;;;;;;40.80;30.27;;;;;;;22.60;57.57;101660.34;5156614;28;20871;-47
2022/07/21 04:20:10;;;;;;;40.80;29.90;;;;;;;22.56;57.98;101665.34;5158959;28;20485;-50
2022/07/21 04:22:43;;;;;;;39.22;30.35;;;;;;;22.51;57.98;101665.13;5159922;28;20437;-50
2022/07/21 04:25:18;;;;;;;41.83;30.23;;;;;;;22.50;58.06;101671.56;5157318;28;20519;-47
2022/07/21 04:27:52;;;;;;;39.55;29.58;;;;;;;22.17;58.04;101622.31;5156511;28;20465;-49
2022/07/21 04:30:24;;;;;;;46.75;32.70;;;;;;;22.51;58.15;101683.97;5155832;28;20975;-50
2022/07/21 04:32:57;;;;;;;43.20;30.95;;;;;;;22.41;58.24;101683.56;5159069;28;20797;-50
2022/07/21 04:35:29;;;;;;;45.97;31.15;;;;;;;22.42;58.14;101679.00;5156793;28;20536;-48
2022/07/21 04:38:01;;;;;;;37.72;28.92;;;;;;;22.46;58.33;101681.09;5158099;28;20422;-52
2022/07/21 04:40:35;;;;;;;45.17;30.17;;;;;;;22.48;58.40;101689.78;5159968;28;20514;-41
2022/07/21 04:43:08;;;;;;;41.92;30.45;;;;;;;22.49;58.43;101680.69;5155031;28;20921;-50
2022/07/21 04:45:40;;;;;;;40.33;30.10;;;;;;;22.50;58.54;101687.72;5157979;28;20457;-53
2022/07/21 04:48:13;;;;;;;42.95;29.73;;;;;;;22.51;58.50;101689.34;5160903;28;20925;-49
2022/07/21 04:50:45;;;;;;;43.28;29.83;;;;;;;22.50;58.60;101685.00;5159152;28;20429;-49
2022/07/21 04:53:17;;;;;;;44.53;30.90;;;;;;;22.51;58.60;101689.34;5161168;28;20924;-51
2022/07/21 04:55:51;;;;;;;41.25;30.75;;;;;;;22.43;58.58;101672.59;5158549;28;20512;-50
2022/07/21 04:58:24;;;;;;;43.72;30.55;;;;;;;22.49;58.68;101682.53;5160381;28;20437;-53
2022/07/21 05:00:56;;;;;;;39.30;29.10;;;;;;;22.45;58.74;101674.06;5158812;28;20510;-51
2022/07/21 05:03:28;;;;;;;39.00;30.02;;;;;;;22.41;58.92;101661.22;5156465;28;21194;-51
2022/07/21 05:06:01;;;;;;;40.63;30.17;;;;;;;22.43;58.99;101676.13;5156515;28;20433;-53
2022/07/21 05:08:33;;;;;;;36.53;28.02;;;;;;;22.43;59.08;101673.44;5159485;28;20467;-51
2022/07/21 05:11:07;;;;;;;40.57;30.30;;;;;;;22.41;58.96;101674.66;5155876;28;20430;-54
2022/07/21 05:13:39;;;;;;;39.05;29.70;;;;;;;22.42;59.03;101674.47;5173308;28;20501;-54
2022/07/21 05:16:12;;;;;;;39.33;28.03;;;;;;;22.41;59.09;101675.50;5169192;28;20850;-52
2022/07/21 05:18:44;;;;;;;39.60;29.13;;;;;;;22.42;59.13;101673.63;5160609;28;20820;-53
2022/07/21 05:21:16;;;;;;;39.70;28.90;;;;;;;22.39;59.44;101668.66;5171627;28;20877;-54
2022/07/21 05:23:49;;;;;;;41.10;28.75;;;;;;;22.38;59.48;101670.53;5166180;28;20414;-53
2022/07/21 05:26:23;;;;;;;38.72;28.52;;;;;;;22.37;59.44;101666.19;5154756;28;20452;-56
2022/07/21 05:28:55;;;;;;;40.93;28.90;;;;;;;22.35;59.33;101662.88;5167333;28;20412;-54
2022/07/21 05:31:27;;;;;;;41.33;28.33;;;;;;;22.39;59.37;101664.13;5167108;28;20565;-53
2022/07/21 05:34:00;;;;;;;40.28;27.85;;;;;;;22.39;59.54;101663.28;5162111;28;20743;-50
2022/07/21 05:36:32;;;;;;;42.63;28.85;;;;;;;22.41;59.50;101667.41;5164204;28;20421;-56
2022/07/21 05:39:05;;;;;;;36.47;26.83;;;;;;;22.41;59.65;101666.59;5159563;28;20787;-50
2022/07/21 05:41:38;;;;;;;36.90;27.92;;;;;;;22.43;59.60;101659.97;5161121;28;20514;-53
2022/07/21 05:44:11;;;;;;;38.40;28.02;;;;;;;22.44;59.54;101661.63;5163655;28;20919;-54
2022/07/21 05:46:43;;;;;;;44.10;29.27;;;;;;;22.44;59.63;101658.09;5164574;28;20456;-53
2022/07/21 05:49:16;;;;;;;41.28;27.45;;;;;;;22.44;59.68;101650.84;5171885;28;20406;-54
2022/07/21 05:51:48;;;;;;;43.38;28.42;;;;;;;22.36;59.60;101626.88;5171782;28;20419;-53
2022/07/21 05:54:20;;;;;;;36.63;27.33;;;;;;;22.52;59.97;101647.13;5175218;28;20429;-55
2022/07/21 05:56:54;;;;;;;40.10;27.30;;;;;;;22.58;59.67;101651.69;5170337;28;20421;-53
2022/07/21 05:59:26;;;;;;;35.88;26.20;;;;;;;22.60;59.71;101648.75;5171731;28;20423;-54
2022/07/21 06:01:59;;;;;;;36.08;25.70;;;;;;;22.62;59.78;101655.59;5172790;28;20923;-56
2022/07/21 06:04:31;;;;;;;44.03;29.30;;;;;;;22.70;59.71;101649.16;5174374;28;20442;-51
2022/07/21 06:07:03;;;;;;;39.47;27.70;;;;;;;22.74;59.80;101639.63;5166670;28;20415;-52
2022/07/21 06:09:35;;;;;;;39.60;26.92;;;;;;;22.80;59.83;101649.56;5163529;28;20953;-54
2022/07/21 06:12:09;;;;;;;38.70;27.77;;;;;;;22.84;59.79;101650.78;5156858;28;20431;-52
2022/07/21 06:14:42;;;;;;;39.42;28.85;;;;;;;22.86;59.64;101654.09;5166225;28;20421;-53
2022/07/21 06:17:15;;;;;;;39.03;27.65;;;;;;;22.90;59.65;101658.03;5182635;28;20534;-56
2022/07/21 06:19:47;;;;;;;39.47;27.48;;;;;;;22.93;59.56;101652.22;5181967;28;20463;-55
2022/07/21 06:22:19;;;;;;;40.78;28.85;;;;;;;22.98;59.78;101652.44;5183486;28;20840;-53
2022/07/21 06:24:52;;;;;;;42.00;29.48;;;;;;;23.02;59.70;101659.06;5175276;28;20838;-52
2022/07/21 06:27:25;;;;;;;41.30;29.73;;;;;;;22.98;59.60;101646.22;5181761;28;20420;-55
2022/07/21 06:29:58;;;;;;;44.30;29.40;;;;;;;23.10;59.66;101657.16;5180066;28;20419;-54
2022/07/21 06:32:31;;;;;;;43.50;30.08;;;;;;;23.08;59.65;101657.38;5185021;28;20783;-55
2022/07/21 06:35:04;;;;;;;44.05;31.15;;;;;;;23.09;59.68;101655.50;5184821;28;20396;-54
2022/07/21 06:37:36;;;;;;;41.58;30.23;;;;;;;23.05;59.75;101646.19;5182112;28;20403;-51
2022/07/21 06:40:10;;;;;;;47.40;30.90;;;;;;;23.12;59.54;101660.47;5179929;28;20526;-54
2022/07/21 06:42:44;;;;;;;41.80;29.85;;;;;;;23.09;59.72;101658.19;5175891;28;20438;-53
2022/07/21 06:45:17;;;;;;;42.05;27.38;;;;;;;23.01;59.89;101656.59;5177727;28;20433;-52
2022/07/21 06:47:49;;;;;;;42.22;25.70;;;;;;;22.98;59.78;101663.22;5177211;28;20421;-53
2022/07/21 06:50:21;;;;;;;36.78;24.42;;;;;;;22.95;60.03;101666.34;5172877;28;20443;-50
2022/07/21 06:52:54;;;;;;;44.17;26.40;;;;;;;22.90;60.06;101665.28;5173492;28;20415;-51
2022/07/21 06:55:27;;;;;;;45.30;26.40;;;;;;;23.00;59.89;101661.13;5177114;28;20415;-50
2022/07/21 06:58:10;;;;;;;42.35;25.63;;;;;;;23.00;59.78;101655.72;5177401;28;20418;-53
2022/07/21 07:00:43;;;;;;;41.50;25.70;;;;;;;23.07;59.66;101661.09;5167463;28;20516;-56
2022/07/21 07:03:16;;;;;;;42.13;24.10;;;;;;;23.08;59.91;101664.63;5162368;28;20486;-54
2022/07/21 07:05:50;;;;;;;38.20;24.02;;;;;;;23.08;59.88;101667.34;5177077;28;20534;-52
2022/07/21 07:08:23;;;;;;;40.87;25.47;;;;;;;23.07;59.93;101666.47;5167600;28;21000;-50
2022/07/21 07:10:55;;;;;;;40.53;25.73;;;;;;;23.10;59.87;101665.22;5168957;28;20496;-50
2022/07/21 07:13:29;;;;;;;43.80;25.58;;;;;;;23.11;59.73;101667.72;5172796;28;20883;-52
2022/07/21 07:16:01;;;;;;;43.25;24.42;;;;;;;23.06;59.91;101658.63;5174348;28;20418;-54
2022/07/21 07:18:33;;;;;;;48.38;25.10;;;;;;;23.07;59.81;101662.97;5169739;28;20456;-49
2022/07/21 07:21:06;;;;;;;47.90;25.65;;;;;;;23.09;60.14;101668.97;5169244;28;20510;-53
2022/07/21 07:23:39;;;;;;;44.75;24.73;;;;;;;23.08;60.05;101664.63;5156784;28;20861;-51
2022/07/21 07:26:11;;;;;;;40.70;23.47;;;;;;;23.08;60.14;101667.34;5167089;28;20856;-52
2022/07/21 07:28:45;;;;;;;47.55;23.75;;;;;;;23.01;59.96;101662.78;5190443;28;20412;-51
2022/07/21 07:31:17;;;;;;;40.50;21.73;;;;;;;23.04;60.14;101666.09;5183745;28;20861;-55
2022/07/21 07:33:50;;;;;;;47.40;24.38;;;;;;;23.05;60.22;101667.75;5166629;28;20434;-53
2022/07/21 07:36:22;;;;;;;46.30;25.13;;;;;;;23.02;60.25;101664.44;5171027;28;20439;-50
2022/07/21 07:38:55;;;;;;;42.92;24.40;;;;;;;23.02;60.30;101661.75;5168774;28;20423;-54
2022/07/21 07:41:28;;;;;;;42.00;24.38;;;;;;;23.04;60.08;101668.78;5181670;28;20435;-51
2022/07/21 07:44:03;;;;;;;45.13;25.85;;;;;;;23.04;60.39;101671.47;5181822;28;20477;-48
2022/07/21 07:46:35;;;;;;;38.47;24.73;;;;;;;23.06;60.44;101674.78;5180437;28;20482;-47
2022/07/21 07:49:08;;;;;;;40.75;22.17;;;;;;;23.05;60.46;101675.84;5180192;28;20411;-51
2022/07/21 07:51:40;;;;;;;39.42;22.50;;;;;;;23.00;60.54;101688.06;5169922;28;20522;-51
2022/07/21 07:54:12;;;;;;;39.70;22.60;;;;;;;22.95;60.59;101690.56;5167103;28;20781;-48
2022/07/21 07:56:44;;;;;;;37.13;23.23;;;;;;;22.93;60.56;101692.63;5169789;28;20456;-52
2022/07/21 07:59:18;;;;;;;36.50;23.80;;;;;;;22.90;60.71;101698.44;5178963;28;20477;-50
2022/07/21 08:01:50;;;;;;;33.50;20.17;;;;;;;22.85;60.77;101695.53;5167366;28;20446;-54
2022/07/21 08:04:23;;;;;;;32.45;18.75;;;;;;;22.87;60.67;101701.53;5165136;28;20475;-56
2022/07/21 08:06:55;;;;;;;24.73;16.58;;;;;;;22.84;60.80;101704.66;5171853;28;20428;-58
2022/07/21 08:09:27;;;;;;;24.05;14.23;;;;;;;22.84;60.73;101704.66;5176476;28;20408;-53
2022/07/21 08:12:00;;;;;;;25.17;14.70;;;;;;;22.72;60.73;101693.69;5169353;28;20408;-52
2022/07/21 08:14:34;;;;;;;20.67;13.77;;;;;;;22.81;60.94;101710.47;5164893;28;20511;-52
2022/07/21 08:17:06;;;;;;;20.80;13.70;;;;;;;22.78;60.71;101716.25;5156279;28;20459;-49
2022/07/21 08:19:38;;;;;;;22.00;13.97;;;;;;;22.80;60.94;101724.97;5163329;28;20448;-50
2022/07/21 08:22:11;;;;;;;19.73;13.05;;;;;;;22.75;60.93;101716.69;5176595;28;20443;-49
2022/07/21 08:24:43;;;;;;;20.33;11.43;;;;;;;22.72;61.00;101727.88;5177313;28;20980;-49
2022/07/21 08:27:16;;;;;;;18.40;11.15;;;;;;;22.67;60.96;101730.34;5179109;28;20795;-50
2022/07/21 08:29:52;;;;;;;20.77;11.97;;;;;;;22.63;60.91;101729.13;5163833;28;20491;-52
2022/07/21 08:32:25;;;;;;;17.83;12.07;;;;;;;22.58;60.94;101723.50;5162529;28;24565;-51
2022/07/21 08:34:57;;;;;;;14.65;9.45;;;;;;;22.59;60.98;101734.09;5163875;28;20413;-53
2022/07/21 08:37:29;;;;;;;12.60;8.15;;;;;;;22.54;61.21;101739.25;5159784;28;20861;-54
2022/07/21 08:40:02;;;;;;;8.48;7.15;;;;;;;22.53;61.06;101738.44;5161847;28;20427;-50
2022/07/21 08:42:34;;;;;;;12.37;8.10;;;;;;;22.53;60.89;101735.75;5164724;28;20511;-55
2022/07/21 08:45:09;;;;;;;10.45;7.50;;;;;;;22.52;60.93;101741.34;5155767;28;20438;-50
2022/07/21 08:47:42;;;;;;;12.20;6.97;;;;;;;22.50;60.95;101743.41;5171114;28;20617;-50
2022/07/21 08:50:14;;;;;;;7.70;5.50;;;;;;;22.46;60.85;101740.31;5160060;28;20461;-48
2022/07/21 08:52:47;;;;;;;7.80;5.47;;;;;;;22.40;60.85;101741.13;5166356;28;20787;-52
2022/07/21 08:55:19;;;;;;;9.85;5.80;;;;;;;22.43;61.03;101746.09;5168110;28;20926;-55
2022/07/21 08:57:52;;;;;;;8.45;5.18;;;;;;;22.43;60.71;101745.28;5171811;28;20498;-49
2022/07/21 09:00:26;;;;;;;9.65;5.57;;;;;;;22.41;60.74;101740.09;5161672;28;20506;-51
2022/07/21 09:03:14;;;;;;;10.95;6.30;;;;;;;22.42;60.88;101743.59;5169211;28;20916;-52
2022/07/21 09:06:04;;;;;;;10.00;6.70;;;;;;;22.41;60.82;101740.09;5169333;28;20927;-50
2022/07/21 09:08:39;;;;;;;13.63;7.13;;;;;;;22.44;60.80;101741.53;5169663;28;20424;-52
2022/07/21 09:11:30;;;;;;;11.80;6.85;;;;;;;22.47;60.87;101743.81;5162251;28;20447;-51
2022/07/21 09:14:08;;;;;;;13.38;7.30;;;;;;;22.50;60.58;101741.53;5166958;28;20426;-50
2022/07/21 09:16:45;;;;;;;13.98;7.72;;;;;;;22.47;60.60;101741.97;5164714;28;20430;-50
2022/07/21 09:19:21;;;;;;;10.52;7.20;;;;;;;22.28;60.58;101719.38;5166422;28;20424;-54
2022/07/21 09:21:57;;;;;;;13.55;7.50;;;;;;;22.50;60.57;101746.94;5168687;28;20991;-54
2022/07/21 09:24:34;;;;;;;13.13;8.15;;;;;;;22.53;60.46;101743.00;5168991;28;20412;-53
2022/07/21 09:27:10;;;;;;;11.23;6.70;;;;;;;22.50;60.51;101741.53;5154746;28;20416;-50
2022/07/21 09:29:46;;;;;;;14.30;7.43;;;;;;;22.46;60.53;101751.06;5172381;28;20433;-53
2022/07/21 09:32:25;;;;;;;11.02;6.80;;;;;;;22.44;60.60;101744.25;5186322;28;20426;-54
2022/07/21 09:35:02;;;;;;;18.02;7.70;;;;;;;22.41;60.66;101736.56;5186675;28;20891;-52
2022/07/21 09:37:35;;;;;;;13.48;8.23;;;;;;;22.40;60.55;101746.53;5187626;28;20564;-52
2022/07/21 09:40:10;;;;;;;13.15;7.38;;;;;;;22.44;60.40;101747.75;5179710;28;20529;-52
2022/07/21 09:42:48;;;;;;;10.10;7.53;;;;;;;22.41;60.47;101737.41;5185275;28;20548;-51
2022/07/21 09:45:21;;;;;;;10.20;7.53;;;;;;;22.46;60.35;101747.56;5176873;28;20612;-53
2022/07/21 09:47:54;;;;;;;10.88;6.97;;;;;;;22.45;60.42;101751.28;5181888;28;20464;-51
2022/07/21 09:50:27;;;;;;;13.60;7.20;;;;;;;22.43;60.34;101751.50;5185484;28;20456;-50
2022/07/21 09:52:59;;;;;;;14.80;8.25;;;;;;;22.40;60.47;101749.22;5185365;28;20452;-51
2022/07/21 09:55:32;;;;;;;13.98;8.13;;;;;;;22.38;60.48;101745.06;5180640;28;20452;-51
2022/07/21 09:58:04;;;;;;;14.88;7.57;;;;;;;22.33;60.67;101748.38;5176694;28;20452;-53
2022/07/21 10:00:37;;;;;;;11.63;7.20;;;;;;;22.29;60.68;101749.81;5159738;28;20527;-51
2022/07/21 10:03:11;;;;;;;15.15;7.40;;;;;;;22.25;60.73;101759.34;5164275;28;20430;-49
2022/07/21 10:05:43;;;;;;;12.03;7.70;;;;;;;22.23;60.68;101761.38;5170753;28;20566;-52
2022/07/21 10:08:16;;;;;;;10.35;6.40;;;;;;;22.25;60.54;101762.84;5172786;28;20443;-50
2022/07/21 10:10:49;;;;;;;14.00;7.10;;;;;;;22.23;60.61;101756.00;5172069;28;20434;-52
2022/07/21 10:13:21;;;;;;;10.00;6.53;;;;;;;22.32;60.61;101769.06;5178944;28;20541;-49
2022/07/21 10:15:54;;;;;;;10.10;6.68;;;;;;;22.37;60.43;101773.03;5183468;28;20891;-50
2022/07/21 10:18:33;;;;;;;8.63;5.80;;;;;;;22.39;60.53;101776.31;5186604;28;20408;-54
2022/07/21 10:21:17;;;;;;;9.80;5.75;;;;;;;22.34;60.64;101768.88;5183850;28;20868;-49
2022/07/21 10:23:53;;;;;;;11.35;5.68;;;;;;;22.36;60.58;101777.56;5188842;28;21015;-56
2022/07/21 10:26:26;;;;;;;9.73;6.38;;;;;;;22.34;60.48;101766.19;5176845;28;20484;-54
2022/07/21 10:28:58;;;;;;;11.18;6.90;;;;;;;22.39;60.42;101779.00;5182466;28;20494;-54
2022/07/21 10:31:30;;;;;;;10.38;5.65;;;;;;;22.42;60.38;101771.38;5181100;28;20934;-50
2022/07/21 10:34:04;;;;;;;10.23;6.00;;;;;;;22.38;60.50;101759.34;5186627;28;20425;-49
2022/07/21 10:36:47;;;;;;;10.02;7.00;;;;;;;22.49;60.47;101774.06;5183446;28;20463;-50
2022/07/21 10:39:26;;;;;;;8.30;5.38;;;;;;;22.48;60.69;101775.94;5185306;28;21167;-53
2022/07/21 10:42:01;;;;;;;9.30;6.10;;;;;;;22.30;60.61;101748.78;5179845;28;20459;-53
2022/07/21 10:44:45;;;;;;;9.20;5.95;;;;;;;22.52;60.60;101782.56;5179494;28;20426;-52
2022/07/21 10:47:20;;;;;;;8.10;6.13;;;;;;;22.58;60.47;101775.53;5184377;28;20480;-52
2022/07/21 10:49:57;;;;;;;9.00;6.07;;;;;;;22.66;60.59;101782.56;5180314;28;20461;-53
2022/07/21 10:52:58;;;;;;;11.60;6.60;;;;;;;22.71;60.45;101774.69;5185309;28;20501;-52
2022/07/21 10:55:35;;;;;;;11.27;6.03;;;;;;;22.71;60.55;101774.69;5183666;28;20585;-51
2022/07/21 10:58:25;;;;;;;11.23;6.03;;;;;;;22.83;60.38;101773.03;5172436;28;20986;-55
2022/07/21 11:00:59;;;;;;;9.23;5.88;;;;;;;22.92;60.54;101779.03;5179953;28;20515;-54
2022/07/21 11:03:33;;;;;;;6.57;4.65;;;;;;;22.97;60.55;101779.25;5184065;28;20553;-55
2022/07/21 11:06:24;;;;;;;8.30;5.50;;;;;;;23.00;60.56;101781.53;5182651;28;20481;-53
2022/07/21 11:09:12;;;;;;;5.07;4.30;;;;;;;23.05;60.43;101784.44;5178538;28;20545;-55
2022/07/21 11:12:00;;;;;;;10.40;4.60;;;;;;;23.13;60.40;101786.06;5179605;28;20797;-56
2022/07/21 11:14:39;;;;;;;7.07;4.70;;;;;;;23.15;60.50;101784.81;5176041;28;20421;-54
2022/07/21 11:17:25;;;;;;;6.88;4.30;;;;;;;23.12;60.27;101779.84;5180187;28;21236;-57
2022/07/21 11:19:58;;;;;;;6.45;4.15;;;;;;;23.18;60.28;101781.72;5173081;28;20422;-54
2022/07/21 11:22:32;;;;;;;5.63;3.17;;;;;;;23.19;60.34;101782.53;5174940;28;20432;-56
2022/07/21 11:25:08;;;;;;;4.10;3.33;;;;;;;23.13;60.13;101784.19;5176056;28;20721;-51
2022/07/21 11:27:40;;;;;;;6.00;3.58;;;;;;;23.10;60.16;101784.63;5175323;28;20407;-54
2022/07/21 11:30:13;;;;;;;6.82;3.63;;;;;;;23.10;60.13;101808.88;5180901;28;20508;-56
2022/07/21 11:32:48;;;;;;;5.22;2.85;;;;;;;23.11;59.94;101790.84;5177509;28;20422;-57
2022/07/21 11:35:20;;;;;;;4.70;3.03;;;;;;;23.10;59.92;101791.88;5179279;28;20760;-53
2022/07/21 11:37:54;;;;;;;6.28;3.35;;;;;;;23.04;59.85;101784.63;5179312;28;20415;-55
2022/07/21 11:40:30;;;;;;;8.27;3.25;;;;;;;23.05;60.03;101786.31;5171927;28;20823;-53
2022/07/21 11:43:02;;;;;;;6.18;3.65;;;;;;;23.08;59.87;101796.66;5183935;28;20466;-55
2022/07/21 11:45:34;;;;;;;6.15;4.07;;;;;;;23.07;59.89;101790.41;5185075;28;20955;-55
2022/07/21 11:48:07;;;;;;;6.32;3.63;;;;;;;23.08;59.85;101796.66;5177249;28;20547;-54